Terminal Aerodrome Forecast
Issued by NWS

Home | Current Version | Previous Version | Graphics & Text | Print | Product List | Glossary On
Versions: 1 2 3 4 5 6 7 8 9 10 11 12 13 14 15 16 17 18 19 20 21 22 23
000
FTUS43 KLSX 251300 AAB
TAFSUS
TAF AMD
KSUS 251358Z 2514/2612 14008KT 3SM BR OVC007
     FM251700 15009KT P6SM OVC018
     FM251900 15007KT P6SM VCTS BKN020CB
     FM252100 04009KT 5SM -RA BR OVC012
     FM260600 01011KT P6SM OVC012=

USA.gov is the U.S. government's official web portal to all federal, state and local government web resources and services.